Time;durP1;ratioP1;P1;durP2;ratioP2;P2;SDS_P1;SDS_P2;PMS_P1;PMS_P2;Temp;Humidity;BMP_temperature;BMP_pressure;BME280_temperature;BME280_humidity;BME280_pressure;Samples;Min_cycle;Max_cycle;Signal;HPM_P1;HPM_P2
2021/03/12 00:01:39;;;;;;;8.70;2.33;;;8.90;99.90;;;;;;1926465;74;21055;-75
2021/03/12 00:04:06;;;;;;;9.20;1.87;;;9.00;99.90;;;;;;1924834;74;21102;-76
2021/03/12 00:06:34;;;;;;;5.30;1.75;;;8.80;99.90;;;;;;1924190;74;21199;-75
2021/03/12 00:09:01;;;;;;;8.30;1.47;;;8.90;99.90;;;;;;1925695;74;21148;-75
2021/03/12 00:11:29;;;;;;;6.90;1.50;;;9.00;99.90;;;;;;1926920;73;21171;-75
2021/03/12 00:13:56;;;;;;;7.10;1.20;;;9.00;99.90;;;;;;1849328;74;21200;-75
2021/03/12 00:16:24;;;;;;;7.25;1.60;;;8.90;99.90;;;;;;1805636;78;21506;-76
2021/03/12 00:18:51;;;;;;;3.85;1.27;;;9.00;99.90;;;;;;1807883;78;21142;-75
2021/03/12 00:21:19;;;;;;;5.37;1.40;;;8.90;99.90;;;;;;1811259;78;21137;-76
2021/03/12 00:23:46;;;;;;;6.58;1.40;;;8.70;99.90;;;;;;1805604;77;21121;-75
2021/03/12 00:26:14;;;;;;;7.72;1.80;;;8.70;99.90;;;;;;1811171;77;21577;-75
2021/03/12 00:28:41;;;;;;;6.22;1.50;;;8.70;99.90;;;;;;1811408;78;21548;-75
2021/03/12 00:31:09;;;;;;;8.78;1.60;;;8.80;99.90;;;;;;1809367;77;21126;-75
2021/03/12 00:33:37;;;;;;;9.88;1.87;;;8.80;99.90;;;;;;1809090;77;21209;-76
2021/03/12 00:36:05;;;;;;;6.22;1.70;;;8.60;99.90;;;;;;1810518;77;21188;-76
2021/03/12 00:38:33;;;;;;;7.90;1.62;;;8.50;99.90;;;;;;1811500;77;21184;-75
2021/03/12 00:41:04;;;;;;;10.53;1.55;;;8.40;99.90;;;;;;1809016;78;21070;-75
2021/03/12 00:43:31;;;;;;;9.80;2.27;;;8.50;99.90;;;;;;1816292;77;21137;-76
2021/03/12 00:46:02;;;;;;;10.43;2.02;;;8.60;99.90;;;;;;1808511;77;21141;-76
2021/03/12 00:48:29;;;;;;;7.08;1.87;;;8.70;99.90;;;;;;1803512;77;21153;-75
2021/03/12 00:50:57;;;;;;;11.18;2.40;;;8.80;99.90;;;;;;1810052;77;21099;-76
2021/03/12 00:53:26;;;;;;;8.13;2.15;;;8.70;99.90;;;;;;1812365;77;21148;-75
2021/03/12 00:55:53;;;;;;;12.28;2.45;;;8.70;99.90;;;;;;1810757;77;21216;-75
2021/03/12 00:58:22;;;;;;;8.00;2.52;;;8.70;99.90;;;;;;1808001;77;21158;-76
2021/03/12 01:00:50;;;;;;;12.78;3.02;;;8.70;99.90;;;;;;1814222;77;21144;-76
2021/03/12 01:03:18;;;;;;;12.95;2.90;;;8.70;99.90;;;;;;1811298;77;21055;-75
2021/03/12 01:05:45;;;;;;;11.38;2.30;;;8.70;99.90;;;;;;1810453;78;21112;-76
2021/03/12 01:08:13;;;;;;;12.00;3.30;;;8.60;99.90;;;;;;1813861;77;21471;-76
2021/03/12 01:10:41;;;;;;;11.22;2.45;;;8.60;99.90;;;;;;1810226;77;21090;-76
2021/03/12 01:13:09;;;;;;;12.68;3.20;;;8.60;99.90;;;;;;1807982;77;21119;-76
2021/03/12 01:15:37;;;;;;;13.22;2.85;;;8.60;99.90;;;;;;1802113;78;21104;-76
2021/03/12 01:18:05;;;;;;;12.20;2.92;;;8.60;99.90;;;;;;1802517;78;21220;-76
2021/03/12 01:20:35;;;;;;;10.80;2.75;;;8.60;99.90;;;;;;1802692;78;21225;-75
2021/03/12 01:23:03;;;;;;;10.75;2.77;;;8.50;99.90;;;;;;1801302;78;21147;-76
2021/03/12 01:25:36;;;;;;;13.88;2.85;;;8.40;99.90;;;;;;1805238;78;22280;-76
2021/03/12 01:28:04;;;;;;;11.65;2.20;;;8.40;99.90;;;;;;1802104;78;21205;-76
2021/03/12 01:30:37;;;;;;;15.13;3.05;;;8.40;99.90;;;;;;1798810;77;21661;-75
2021/03/12 01:33:06;;;;;;;8.45;2.47;;;8.40;99.90;;;;;;1798047;78;21211;-77
2021/03/12 01:35:34;;;;;;;14.98;3.05;;;8.30;99.90;;;;;;1802245;78;21119;-76
2021/03/12 01:38:02;;;;;;;10.38;2.92;;;8.30;99.90;;;;;;1797699;78;21267;-75
2021/03/12 01:40:32;;;;;;;17.32;3.08;;;8.40;99.90;;;;;;1803682;78;21283;-75
2021/03/12 01:43:01;;;;;;;13.53;3.15;;;8.30;99.90;;;;;;1794001;78;22203;-76
2021/03/12 01:45:32;;;;;;;13.40;3.30;;;8.40;99.90;;;;;;1803359;78;21112;-75
2021/03/12 01:48:01;;;;;;;17.20;3.60;;;8.40;99.90;;;;;;1798552;78;21542;-75
2021/03/12 01:50:28;;;;;;;16.00;3.50;;;8.40;99.90;;;;;;1802534;78;21108;-76
2021/03/12 01:52:56;;;;;;;17.23;3.35;;;8.30;99.90;;;;;;1805882;78;21118;-76
2021/03/12 01:55:26;;;;;;;18.50;3.87;;;8.40;99.90;;;;;;1799679;78;21140;-76
2021/03/12 01:57:54;;;;;;;16.75;3.80;;;8.40;99.90;;;;;;1796524;77;21629;-76
2021/03/12 02:00:22;;;;;;;17.98;3.90;;;8.40;99.90;;;;;;1799398;78;21123;-76
2021/03/12 02:02:50;;;;;;;13.65;3.40;;;8.40;99.90;;;;;;1802604;78;21226;-76
2021/03/12 02:05:17;;;;;;;17.92;3.37;;;8.50;99.90;;;;;;1802292;78;21098;-76
2021/03/12 02:07:45;;;;;;;16.27;3.67;;;8.60;99.90;;;;;;1797086;78;21537;-76
2021/03/12 02:10:16;;;;;;;15.65;4.30;;;8.80;99.90;;;;;;1804178;78;21690;-75
2021/03/12 02:12:50;;;;;;;13.85;4.33;;;8.70;99.90;;;;;;1794947;78;21217;-76
2021/03/12 02:15:21;;;;;;;20.05;3.83;;;8.80;99.90;;;;;;1802248;78;21063;-76
2021/03/12 02:17:51;;;;;;;14.03;3.87;;;8.90;99.90;;;;;;1802030;78;21115;-76
2021/03/12 02:20:37;;;;;;;16.60;4.80;;;9.10;99.90;;;;;;1802811;78;21506;-75
2021/03/12 02:23:13;;;;;;;20.45;4.42;;;9.10;99.90;;;;;;1799752;78;21084;-76
2021/03/12 02:25:44;;;;;;;20.05;4.17;;;9.20;99.90;;;;;;1801509;78;21064;-76
2021/03/12 02:28:12;;;;;;;18.32;4.53;;;9.30;99.90;;;;;;1803975;78;21044;-76
2021/03/12 02:30:40;;;;;;;15.78;3.62;;;9.30;99.90;;;;;;1799971;78;21909;-76
2021/03/12 02:33:08;;;;;;;19.20;3.33;;;9.30;99.90;;;;;;1803822;78;21083;-76
2021/03/12 02:35:37;;;;;;;19.73;4.95;;;9.30;99.90;;;;;;1798058;77;21624;-76
2021/03/12 02:38:05;;;;;;;12.55;3.42;;;9.40;99.90;;;;;;1803766;78;21151;-76
2021/03/12 02:40:35;;;;;;;12.70;3.10;;;9.30;99.90;;;;;;1803129;78;21114;-76
2021/03/12 02:43:04;;;;;;;15.75;3.83;;;9.30;99.90;;;;;;1797814;78;21628;-76
2021/03/12 02:45:32;;;;;;;16.77;3.12;;;9.30;99.90;;;;;;1806178;78;21617;-76
2021/03/12 02:48:00;;;;;;;20.32;4.20;;;9.40;99.90;;;;;;1800275;78;21186;-76
2021/03/12 02:50:27;;;;;;;19.60;4.08;;;9.50;99.90;;;;;;1803748;78;21186;-76
2021/03/12 02:52:55;;;;;;;15.35;3.25;;;9.50;99.90;;;;;;1798691;78;21135;-77
2021/03/12 02:55:23;;;;;;;21.07;4.08;;;9.60;99.90;;;;;;1805307;78;21127;-76
2021/03/12 02:57:51;;;;;;;24.50;4.30;;;9.60;99.90;;;;;;1802018;78;21185;-76
2021/03/12 03:00:19;;;;;;;18.70;3.72;;;9.60;99.90;;;;;;1802053;78;21115;-76
2021/03/12 03:02:49;;;;;;;22.20;3.83;;;9.60;99.90;;;;;;1805539;78;21648;-76
2021/03/12 03:05:17;;;;;;;14.38;3.47;;;9.60;99.90;;;;;;1801988;78;21123;-76
2021/03/12 03:07:47;;;;;;;13.62;3.70;;;9.50;99.90;;;;;;1799314;78;21104;-77
2021/03/12 03:10:16;;;;;;;15.03;3.25;;;9.50;99.90;;;;;;1800533;78;21604;-77
2021/03/12 03:12:47;;;;;;;19.87;4.20;;;9.50;99.90;;;;;;1800503;78;21139;-75
2021/03/12 03:15:16;;;;;;;15.43;3.70;;;9.50;99.90;;;;;;1804456;78;21152;-76
2021/03/12 03:17:46;;;;;;;17.17;3.47;;;9.60;99.90;;;;;;1802201;78;21102;-76
2021/03/12 03:20:15;;;;;;;17.60;3.80;;;9.50;99.90;;;;;;1802830;78;21376;-75
2021/03/12 03:22:45;;;;;;;21.17;3.60;;;9.40;99.90;;;;;;1801031;78;21149;-76
2021/03/12 03:25:13;;;;;;;16.48;3.55;;;9.50;99.90;;;;;;1802996;78;21132;-76
2021/03/12 03:27:42;;;;;;;12.70;3.35;;;9.50;99.90;;;;;;1801647;78;21123;-77
2021/03/12 03:30:12;;;;;;;18.35;3.47;;;9.40;99.90;;;;;;1806917;78;21522;-76
2021/03/12 03:32:40;;;;;;;15.03;3.37;;;9.40;99.90;;;;;;1802012;78;21708;-76
2021/03/12 03:35:09;;;;;;;16.73;3.50;;;9.40;99.90;;;;;;1806805;78;21474;-77
2021/03/12 03:37:37;;;;;;;18.80;3.70;;;9.40;99.90;;;;;;1801419;77;21269;-75
2021/03/12 03:40:06;;;;;;;12.68;3.60;;;9.30;99.90;;;;;;1800650;78;21075;-75
2021/03/12 03:42:36;;;;;;;9.90;3.20;;;9.30;99.90;;;;;;1800473;78;21635;-75
2021/03/12 03:45:07;;;;;;;13.45;3.25;;;9.30;99.90;;;;;;1804301;78;21198;-75
2021/03/12 03:47:36;;;;;;;11.75;3.20;;;9.40;99.90;;;;;;1799658;78;21123;-76
2021/03/12 03:50:05;;;;;;;14.00;3.60;;;9.50;99.90;;;;;;1804603;78;21232;-75
2021/03/12 03:52:33;;;;;;;15.65;4.37;;;9.60;99.90;;;;;;1802087;78;21149;-75
2021/03/12 03:55:02;;;;;;;16.55;4.08;;;9.50;99.90;;;;;;1805805;78;21147;-76
2021/03/12 03:57:30;;;;;;;15.78;3.80;;;9.60;99.90;;;;;;1800671;78;21112;-76
2021/03/12 03:59:59;;;;;;;10.55;2.95;;;9.50;99.90;;;;;;1800263;77;21484;-76
2021/03/12 04:02:27;;;;;;;13.25;4.10;;;9.50;99.90;;;;;;1800412;78;21166;-76
2021/03/12 04:04:55;;;;;;;15.78;4.17;;;9.50;99.90;;;;;;1801547;78;21162;-76
2021/03/12 04:07:23;;;;;;;12.00;3.87;;;9.50;99.90;;;;;;1802462;78;21174;-75
2021/03/12 04:09:52;;;;;;;14.90;3.45;;;9.60;99.90;;;;;;1805326;77;21173;-76
2021/03/12 04:12:20;;;;;;;18.23;3.95;;;9.60;99.90;;;;;;1792014;78;21120;-76
2021/03/12 04:14:48;;;;;;;14.63;4.12;;;9.60;99.90;;;;;;1793272;78;21213;-75
2021/03/12 04:17:15;;;;;;;14.23;3.70;;;9.50;99.90;;;;;;1798781;78;21180;-76
2021/03/12 04:19:45;;;;;;;12.50;3.83;;;9.40;99.90;;;;;;1801660;78;21085;-76
2021/03/12 04:22:13;;;;;;;18.85;4.28;;;9.50;99.90;;;;;;1807443;78;21106;-75
2021/03/12 04:24:42;;;;;;;16.07;3.58;;;9.50;99.90;;;;;;1799951;78;21614;-75
2021/03/12 04:27:10;;;;;;;11.85;3.10;;;9.50;99.90;;;;;;1798857;78;21127;-75
2021/03/12 04:29:38;;;;;;;14.30;3.40;;;9.40;99.90;;;;;;1797868;78;21605;-75
2021/03/12 04:32:06;;;;;;;12.35;3.33;;;9.40;99.90;;;;;;1801702;78;21103;-75
2021/03/12 04:34:34;;;;;;;16.70;3.47;;;9.30;99.90;;;;;;1804319;78;21095;-75
2021/03/12 04:37:02;;;;;;;17.77;3.50;;;9.40;99.90;;;;;;1805744;78;21050;-75
2021/03/12 04:39:30;;;;;;;13.15;2.92;;;9.40;99.90;;;;;;1805864;78;21017;-75
2021/03/12 04:41:59;;;;;;;16.52;3.47;;;9.40;99.90;;;;;;1802850;78;21056;-76
2021/03/12 04:44:26;;;;;;;18.20;3.75;;;9.50;99.90;;;;;;1795585;78;21632;-75
2021/03/12 04:46:54;;;;;;;13.25;3.33;;;9.50;99.90;;;;;;1802129;78;21108;-75
2021/03/12 04:49:23;;;;;;;14.73;3.50;;;9.50;99.90;;;;;;1801580;78;21056;-75
2021/03/12 04:51:51;;;;;;;14.70;3.47;;;9.50;99.90;;;;;;1802774;78;21107;-76
2021/03/12 04:54:19;;;;;;;16.23;4.10;;;9.50;99.90;;;;;;1804732;78;21063;-75
2021/03/12 04:56:46;;;;;;;15.90;3.75;;;9.50;99.90;;;;;;1802214;78;21638;-75
2021/03/12 04:59:14;;;;;;;12.23;3.92;;;9.60;99.90;;;;;;1804403;78;21100;-76
2021/03/12 05:01:43;;;;;;;18.52;3.70;;;9.60;99.90;;;;;;1800624;78;21111;-76
2021/03/12 05:04:12;;;;;;;19.45;3.55;;;9.60;99.90;;;;;;1803850;78;21146;-76
2021/03/12 05:06:43;;;;;;;12.00;3.42;;;9.50;99.90;;;;;;1799358;78;21198;-75
2021/03/12 05:09:12;;;;;;;10.60;3.08;;;9.40;99.90;;;;;;1803085;78;21558;-76
2021/03/12 05:11:45;;;;;;;13.32;3.00;;;9.20;99.90;;;;;;1804998;78;21155;-77
2021/03/12 05:14:14;;;;;;;13.20;3.65;;;9.20;99.90;;;;;;1797367;78;22525;-75
2021/03/12 05:16:42;;;;;;;12.05;3.33;;;9.20;99.90;;;;;;1804406;78;21135;-75
2021/03/12 05:19:11;;;;;;;13.15;3.02;;;9.20;99.90;;;;;;1803503;78;21189;-75
2021/03/12 05:21:39;;;;;;;17.02;3.22;;;9.20;99.90;;;;;;1801962;78;21131;-75
2021/03/12 05:24:07;;;;;;;15.23;3.30;;;9.30;99.90;;;;;;1798143;78;21175;-75
2021/03/12 05:26:34;;;;;;;9.48;3.00;;;9.40;99.90;;;;;;1804884;78;21200;-75
2021/03/12 05:29:01;;;;;;;11.90;2.37;;;9.40;99.90;;;;;;1806623;78;21052;-75
2021/03/12 05:31:34;;;;;;;14.90;3.17;;;9.30;99.90;;;;;;1802255;78;21056;-75
2021/03/12 05:33:58;;;;;;;12.20;3.10;;;9.20;99.90;;;;;;1798871;78;21212;-75
2021/03/12 05:36:26;;;;;;;17.00;3.58;;;9.30;99.90;;;;;;1805241;78;21596;-74
2021/03/12 05:38:53;;;;;;;15.55;3.87;;;9.30;99.90;;;;;;1803842;78;21118;-75
2021/03/12 05:41:21;;;;;;;12.90;3.83;;;9.40;99.90;;;;;;1803130;78;21244;-75
2021/03/12 05:43:48;;;;;;;15.95;3.10;;;9.40;99.90;;;;;;1800463;78;21199;-76
2021/03/12 05:46:16;;;;;;;12.23;3.40;;;9.40;99.90;;;;;;1807363;77;21130;-76
2021/03/12 05:48:45;;;;;;;14.38;3.10;;;9.30;99.90;;;;;;1801436;78;21105;-77
2021/03/12 05:51:13;;;;;;;17.82;3.37;;;9.30;99.90;;;;;;1806146;78;21104;-78
2021/03/12 05:53:41;;;;;;;18.10;3.85;;;9.30;99.90;;;;;;1802202;78;21179;-77
2021/03/12 05:56:09;;;;;;;12.98;3.10;;;9.30;99.90;;;;;;1803020;78;21107;-76
2021/03/12 05:58:37;;;;;;;20.20;3.85;;;9.40;99.90;;;;;;1801513;78;21186;-78
2021/03/12 06:01:05;;;;;;;16.67;3.45;;;9.40;99.90;;;;;;1803106;78;21166;-78
2021/03/12 06:03:32;;;;;;;15.43;3.45;;;9.20;99.90;;;;;;1805536;78;21163;-76
2021/03/12 06:06:00;;;;;;;15.50;3.55;;;9.10;99.90;;;;;;1802798;78;21103;-76
2021/03/12 06:08:27;;;;;;;17.00;3.42;;;9.10;99.90;;;;;;1800630;77;21091;-77
2021/03/12 06:10:55;;;;;;;19.02;3.52;;;9.10;99.90;;;;;;1802711;78;21167;-77
2021/03/12 06:13:23;;;;;;;17.23;3.98;;;9.10;99.90;;;;;;1805894;78;21127;-76
2021/03/12 06:15:50;;;;;;;18.48;3.92;;;9.20;99.90;;;;;;1800674;78;21186;-76
2021/03/12 06:18:25;;;;;;;14.65;3.33;;;9.20;99.90;;;;;;1808150;78;21111;-76
2021/03/12 06:20:49;;;;;;;12.88;3.58;;;9.30;99.90;;;;;;1801999;78;21158;-77
2021/03/12 06:26:23;;;;;;;15.72;3.02;;;9.30;99.90;;;;;;1910398;73;21291;-77
2021/03/12 06:29:09;;;;;;;14.43;3.15;;;9.30;99.90;;;;;;1904566;73;21097;-76
2021/03/12 06:31:37;;;;;;;22.07;3.55;;;9.30;99.90;;;;;;1915378;73;21108;-77
2021/03/12 06:34:09;;;;;;;14.47;3.42;;;9.30;99.90;;;;;;1946281;72;21226;-78
2021/03/12 06:36:37;;;;;;;16.02;3.22;;;9.30;99.90;;;;;;1956421;72;21094;-75
2021/03/12 06:39:04;;;;;;;13.30;3.10;;;9.20;99.90;;;;;;1957267;72;21061;-73
2021/03/12 06:41:40;;;;;;;12.55;3.25;;;9.20;99.90;;;;;;1949943;72;21129;-73
2021/03/12 06:44:35;;;;;;;13.93;3.00;;;9.20;99.90;;;;;;1954494;72;21268;-73
2021/03/12 06:47:03;;;;;;;14.75;2.70;;;9.10;99.90;;;;;;1953131;72;21170;-73
2021/03/12 06:49:31;;;;;;;16.50;3.22;;;9.00;99.90;;;;;;1952474;72;21109;-74
2021/03/12 06:52:01;;;;;;;18.40;3.15;;;8.70;99.90;;;;;;1953119;72;21146;-78
2021/03/12 06:54:32;;;;;;;9.98;3.10;;;8.80;99.90;;;;;;1953450;72;21158;-78
2021/03/12 06:57:00;;;;;;;17.95;3.37;;;8.90;99.90;;;;;;1946907;72;21603;-79
2021/03/12 06:59:30;;;;;;;14.98;3.22;;;8.90;99.90;;;;;;1949740;73;21190;-78
2021/03/12 07:02:00;;;;;;;16.10;3.45;;;8.90;99.90;;;;;;1952042;72;21194;-76
2021/03/12 07:04:29;;;;;;;14.55;3.02;;;9.10;99.90;;;;;;1948922;73;21174;-78
2021/03/12 07:06:59;;;;;;;18.62;3.67;;;9.10;99.90;;;;;;1950181;72;21049;-77
2021/03/12 07:09:28;;;;;;;17.65;3.47;;;9.10;99.90;;;;;;1956220;72;21151;-77
2021/03/12 07:11:57;;;;;;;19.35;3.45;;;9.20;99.90;;;;;;1950729;72;21108;-79
2021/03/12 07:14:27;;;;;;;16.65;3.98;;;9.20;99.90;;;;;;1903808;74;21070;-79
2021/03/12 07:16:54;;;;;;;15.00;3.45;;;9.00;99.90;;;;;;1931286;73;21148;-80
2021/03/12 07:19:22;;;;;;;15.68;3.20;;;9.10;99.90;;;;;;1930318;74;21105;-79
2021/03/12 07:21:51;;;;;;;19.77;3.75;;;9.20;99.90;;;;;;1932595;74;21607;-81
2021/03/12 07:24:23;;;;;;;16.23;3.08;;;9.20;99.90;;;;;;1929061;74;21159;-82
2021/03/12 07:26:54;;;;;;;19.60;3.62;;;9.20;99.90;;;;;;1936715;74;21158;-82
2021/03/12 07:29:24;;;;;;;17.42;3.15;;;9.30;99.90;;;;;;1929186;74;21152;-82
2021/03/12 07:31:54;;;;;;;15.30;3.02;;;9.30;99.90;;;;;;1926695;73;21090;-79
2021/03/12 07:34:32;;;;;;;14.20;2.87;;;9.20;99.90;;;;;;1919542;73;21102;-79
2021/03/12 07:37:02;;;;;;;13.05;3.30;;;9.30;99.90;;;;;;1926372;73;21075;-78
2021/03/12 07:39:44;;;;;;;21.40;3.25;;;9.30;99.90;;;;;;1910879;73;21183;-77
2021/03/12 07:42:15;;;;;;;17.87;3.47;;;9.40;99.90;;;;;;1931348;73;21082;-78
2021/03/12 07:44:46;;;;;;;13.35;2.70;;;9.40;99.90;;;;;;1925735;73;21086;-78
2021/03/12 07:47:16;;;;;;;12.82;3.55;;;9.50;99.90;;;;;;1927465;74;21129;-77
2021/03/12 07:49:43;;;;;;;17.65;4.03;;;9.30;99.90;;;;;;1924860;73;21406;-77
2021/03/12 07:52:11;;;;;;;19.40;4.30;;;9.30;99.90;;;;;;1928480;74;21146;-78
2021/03/12 07:54:43;;;;;;;13.58;3.25;;;9.30;99.90;;;;;;1928304;73;21152;-77
2021/03/12 07:57:13;;;;;;;17.52;3.47;;;9.30;99.90;;;;;;1922210;74;21179;-80
2021/03/12 07:59:54;;;;;;;13.03;3.60;;;9.60;99.90;;;;;;1931585;74;21150;-77
2021/03/12 08:02:22;;;;;;;16.10;3.75;;;9.70;99.90;;;;;;1920246;74;22276;-78
2021/03/12 08:04:49;;;;;;;17.95;3.40;;;9.70;99.90;;;;;;1927457;74;21548;-78
2021/03/12 08:07:20;;;;;;;14.85;4.22;;;9.80;99.90;;;;;;1926834;73;21090;-77
2021/03/12 08:09:50;;;;;;;16.30;4.40;;;9.80;99.90;;;;;;1931752;74;21008;-77
2021/03/12 08:12:41;;;;;;;22.77;4.40;;;9.80;99.90;;;;;;1925427;73;21601;-77
2021/03/12 08:15:17;;;;;;;22.25;4.33;;;9.60;99.90;;;;;;1923194;73;21336;-78
2021/03/12 08:17:46;;;;;;;16.23;4.08;;;9.60;99.90;;;;;;1923052;74;21093;-78
2021/03/12 08:20:30;;;;;;;15.78;3.85;;;9.50;99.90;;;;;;1925744;73;21603;-78
2021/03/12 08:23:00;;;;;;;14.13;4.47;;;9.40;99.90;;;;;;1926219;73;21121;-78
2021/03/12 08:25:47;;;;;;;21.90;4.72;;;9.20;99.90;;;;;;1924475;74;21140;-78
2021/03/12 08:28:17;;;;;;;16.77;4.05;;;9.40;99.90;;;;;;1926016;73;21118;-78
2021/03/12 08:30:46;;;;;;;20.27;4.25;;;9.40;99.90;;;;;;1927265;73;21086;-78
2021/03/12 08:33:29;;;;;;;18.02;4.25;;;9.60;99.90;;;;;;1926518;74;21126;-79
2021/03/12 08:35:58;;;;;;;18.65;4.00;;;9.70;99.90;;;;;;1929867;73;21709;-77
2021/03/12 08:38:29;;;;;;;17.98;4.65;;;9.70;99.90;;;;;;1921805;73;21108;-79
2021/03/12 08:41:02;;;;;;;15.30;4.20;;;9.70;99.90;;;;;;1921944;74;21110;-79
2021/03/12 08:43:32;;;;;;;25.30;5.30;;;9.70;99.90;;;;;;1925666;74;21121;-79
2021/03/12 08:46:01;;;;;;;20.15;4.58;;;9.70;99.90;;;;;;1927581;73;21227;-79
2021/03/12 08:48:32;;;;;;;15.95;4.55;;;9.70;99.90;;;;;;1925261;73;21411;-79
2021/03/12 08:51:02;;;;;;;14.40;3.75;;;9.50;99.90;;;;;;1924442;73;21168;-78
2021/03/12 08:53:32;;;;;;;24.65;4.40;;;9.50;99.90;;;;;;1928259;74;21127;-79
2021/03/12 08:56:02;;;;;;;17.02;4.40;;;9.70;99.90;;;;;;1922623;73;21122;-79
2021/03/12 08:58:33;;;;;;;23.20;4.60;;;9.50;99.90;;;;;;1930344;73;21180;-78
2021/03/12 09:01:09;;;;;;;20.40;5.12;;;9.60;99.90;;;;;;1929008;73;21205;-77
2021/03/12 09:03:38;;;;;;;24.63;5.05;;;9.60;99.90;;;;;;1925872;73;21590;-79
2021/03/12 09:06:07;;;;;;;17.07;4.65;;;9.80;99.90;;;;;;1925489;73;21071;-79
2021/03/12 09:08:36;;;;;;;16.02;4.65;;;9.80;99.90;;;;;;1930624;74;21082;-78
2021/03/12 09:11:06;;;;;;;16.85;4.78;;;10.10;99.90;;;;;;1928426;74;21043;-79
2021/03/12 09:13:36;;;;;;;18.35;4.35;;;10.20;99.90;;;;;;1925409;73;21664;-79
2021/03/12 09:16:05;;;;;;;20.32;4.75;;;10.40;99.90;;;;;;1929019;74;21066;-80
2021/03/12 09:18:34;;;;;;;16.73;4.42;;;10.30;99.90;;;;;;1928020;73;21063;-76
2021/03/12 09:21:05;;;;;;;16.52;4.25;;;10.40;99.90;;;;;;1925059;73;21050;-79
2021/03/12 09:23:50;;;;;;;18.05;4.72;;;10.50;99.90;;;;;;1930524;73;21143;-77
2021/03/12 09:26:21;;;;;;;11.35;4.28;;;10.50;99.90;;;;;;1922120;73;21142;-77
2021/03/12 09:28:51;;;;;;;19.20;4.17;;;10.70;99.90;;;;;;1927189;73;21168;-78
2021/03/12 09:31:20;;;;;;;15.70;4.00;;;10.70;99.90;;;;;;1928499;74;21638;-77
2021/03/12 09:33:53;;;;;;;19.10;4.83;;;10.80;99.90;;;;;;1929250;73;21083;-77
2021/03/12 09:36:35;;;;;;;;;;;10.80;99.90;;;;;;1927323;73;21090;-77
2021/03/12 09:39:12;;;;;;;15.72;4.17;;;10.60;99.90;;;;;;1924693;73;20180;-77
2021/03/12 09:41:45;;;;;;;20.50;4.80;;;10.50;99.90;;;;;;1922238;73;21079;-77
2021/03/12 09:44:14;;;;;;;19.32;4.85;;;10.50;99.90;;;;;;1925126;74;21106;-77
2021/03/12 09:46:43;;;;;;;15.30;4.45;;;10.50;99.90;;;;;;1925247;74;21062;-77
2021/03/12 09:49:14;;;;;;;19.15;4.28;;;10.40;99.90;;;;;;1927458;74;21101;-78
2021/03/12 09:51:47;;;;;;;14.43;3.87;;;10.50;99.90;;;;;;1928858;74;21075;-77
2021/03/12 09:54:16;;;;;;;13.45;4.08;;;10.70;99.90;;;;;;1926758;74;21125;-77
2021/03/12 09:56:52;;;;;;;16.62;4.45;;;10.70;99.90;;;;;;1924565;73;21098;-77
2021/03/12 09:59:23;;;;;;;24.37;4.83;;;10.80;99.90;;;;;;1922055;74;21030;-77
2021/03/12 10:01:51;;;;;;;14.13;3.55;;;10.70;99.90;;;;;;1923523;73;21233;-77
2021/03/12 10:04:28;;;;;;;17.62;4.42;;;10.60;99.90;;;;;;1925975;73;21121;-77
2021/03/12 10:07:11;;;;;;;21.15;3.40;;;10.90;99.90;;;;;;1926505;74;21125;-77
2021/03/12 10:09:40;;;;;;;12.10;3.33;;;11.00;99.90;;;;;;1903363;74;22291;-77
2021/03/12 10:12:22;;;;;;;20.90;3.60;;;11.00;99.90;;;;;;1926822;74;21176;-78
2021/03/12 10:14:52;;;;;;;14.83;3.37;;;11.10;99.90;;;;;;1911428;73;21119;-77
2021/03/12 10:17:22;;;;;;;15.20;3.35;;;11.10;99.90;;;;;;1921208;74;21164;-77
2021/03/12 10:20:04;;;;;;;11.53;2.98;;;11.10;99.90;;;;;;1925261;73;21249;-77
2021/03/12 10:22:35;;;;;;;13.75;3.05;;;11.10;99.90;;;;;;1913260;74;21157;-74
2021/03/12 10:25:39;;;;;;;12.50;2.90;;;11.00;99.90;;;;;;1925006;74;21168;-77
2021/03/12 10:28:20;;;;;;;9.53;2.58;;;11.10;99.90;;;;;;1918700;74;21215;-76
2021/03/12 10:30:48;;;;;;;15.88;2.75;;;11.30;99.90;;;;;;1917905;74;21023;-76
2021/03/12 10:33:24;;;;;;;13.72;2.92;;;11.50;99.90;;;;;;1925404;74;21689;-76
2021/03/12 10:35:54;;;;;;;14.05;2.95;;;11.60;99.60;;;;;;1928735;74;21113;-77
2021/03/12 10:38:30;;;;;;;17.70;3.08;;;11.60;99.50;;;;;;1928165;73;21183;-77
2021/03/12 10:41:03;;;;;;;11.03;3.00;;;11.50;99.40;;;;;;1925507;74;21078;-79
2021/03/12 10:43:33;;;;;;;19.10;3.85;;;11.50;99.50;;;;;;1921454;74;21129;-79
2021/03/12 10:46:05;;;;;;;12.85;3.15;;;11.30;99.90;;;;;;1928194;74;21038;-77
2021/03/12 10:48:39;;;;;;;;;;;11.40;99.90;;;;;;1927349;74;21066;-77
2021/03/12 10:51:07;;;;;;;10.58;2.83;;;11.20;99.60;;;;;;1929200;74;20203;-77
2021/03/12 10:53:53;;;;;;;12.93;2.92;;;11.10;99.70;;;;;;1925967;73;21191;-77
2021/03/12 10:56:22;;;;;;;14.23;3.12;;;11.20;99.50;;;;;;1924633;73;21173;-77
2021/03/12 10:58:52;;;;;;;12.82;3.12;;;11.00;99.40;;;;;;1923855;74;21225;-76
2021/03/12 11:01:30;;;;;;;16.35;3.70;;;10.90;99.90;;;;;;1927314;74;21086;-77
2021/03/12 11:03:59;;;;;;;11.95;3.65;;;11.00;99.90;;;;;;1921399;74;21180;-76
2021/03/12 11:06:32;;;;;;;13.88;2.75;;;10.80;99.90;;;;;;1924927;74;21034;-76
2021/03/12 11:08:59;;;;;;;;;;;11.00;99.90;;;;;;1906753;74;21127;-76
2021/03/12 11:11:26;;;;;;;11.60;2.65;;;11.30;99.90;;;;;;1925960;74;20173;-74
2021/03/12 11:13:55;;;;;;;11.05;2.95;;;11.50;99.70;;;;;;1925968;74;21090;-75
2021/03/12 11:16:23;;;;;;;12.43;3.15;;;11.50;99.40;;;;;;1929982;74;21256;-75
2021/03/12 11:18:50;;;;;;;10.50;2.85;;;11.60;99.00;;;;;;1925075;73;21156;-76
2021/03/12 11:21:18;;;;;;;16.12;3.50;;;11.50;98.90;;;;;;1921929;74;21081;-75
2021/03/12 11:23:46;;;;;;;12.65;4.12;;;11.60;98.50;;;;;;1925213;74;21094;-76
2021/03/12 11:26:14;;;;;;;12.50;3.02;;;11.60;98.90;;;;;;1924503;74;21105;-74
2021/03/12 11:28:42;;;;;;;11.57;2.95;;;11.50;99.10;;;;;;1909143;75;21101;-76
2021/03/12 11:31:12;;;;;;;11.80;3.08;;;11.60;99.20;;;;;;1929877;74;21035;-76
2021/03/12 11:33:38;;;;;;;17.12;3.12;;;11.70;99.00;;;;;;1927758;74;21138;-75
2021/03/12 11:36:07;;;;;;;13.00;3.47;;;11.80;98.60;;;;;;1928374;74;21043;-76
2021/03/12 11:38:36;;;;;;;17.62;3.55;;;11.60;98.80;;;;;;1926556;74;21367;-74
2021/03/12 11:41:04;;;;;;;17.37;3.50;;;11.50;98.80;;;;;;1922003;74;21088;-75
2021/03/12 11:43:32;;;;;;;16.60;3.50;;;11.40;99.00;;;;;;1929553;74;21101;-75
2021/03/12 11:46:00;;;;;;;12.47;3.30;;;11.20;99.20;;;;;;1926763;74;21114;-76
2021/03/12 11:48:27;;;;;;;14.78;3.42;;;11.30;99.30;;;;;;1926323;74;21114;-74
2021/03/12 11:50:56;;;;;;;19.23;3.33;;;11.20;99.20;;;;;;1924196;74;21050;-74
2021/03/12 11:53:24;;;;;;;18.87;3.95;;;11.20;99.60;;;;;;1929237;74;21701;-74
2021/03/12 11:55:51;;;;;;;20.45;4.00;;;11.20;99.20;;;;;;1928856;74;21022;-74
2021/03/12 11:58:19;;;;;;;17.65;3.50;;;11.20;99.20;;;;;;1929943;74;21178;-76
2021/03/12 12:00:48;;;;;;;18.15;3.70;;;11.40;99.30;;;;;;1925884;74;21136;-75
2021/03/12 12:03:15;;;;;;;18.62;3.35;;;11.40;99.20;;;;;;1928107;74;21417;-74
2021/03/12 12:05:43;;;;;;;20.80;3.37;;;11.50;99.90;;;;;;1924330;74;21129;-76
2021/03/12 12:08:10;;;;;;;16.20;3.22;;;11.60;98.90;;;;;;1926202;73;21152;-74
2021/03/12 12:10:38;;;;;;;18.25;3.65;;;11.80;98.80;;;;;;1927413;74;21197;-75
2021/03/12 12:13:05;;;;;;;17.48;3.58;;;11.90;98.40;;;;;;1926510;74;21167;-76
2021/03/12 12:15:33;;;;;;;15.30;3.30;;;12.00;98.30;;;;;;1925029;74;21595;-77
2021/03/12 12:18:03;;;;;;;18.00;3.42;;;12.00;98.20;;;;;;1928374;74;21127;-76
2021/03/12 12:20:31;;;;;;;24.18;4.05;;;11.90;98.00;;;;;;1928427;74;22018;-74
2021/03/12 12:22:59;;;;;;;17.85;3.58;;;11.70;98.00;;;;;;1930124;73;21133;-77
2021/03/12 12:25:27;;;;;;;17.98;3.77;;;11.70;98.20;;;;;;1925715;73;21118;-75
2021/03/12 12:27:55;;;;;;;16.30;3.12;;;11.80;97.90;;;;;;1928809;74;21102;-75
2021/03/12 12:30:22;;;;;;;17.95;3.05;;;12.30;97.60;;;;;;1931270;74;21109;-75
2021/03/12 12:32:50;;;;;;;16.20;3.35;;;12.80;96.80;;;;;;1926029;74;21195;-75
2021/03/12 12:35:18;;;;;;;12.65;3.40;;;13.10;96.70;;;;;;1925070;74;21500;-74
2021/03/12 12:37:45;;;;;;;12.98;3.22;;;13.30;96.00;;;;;;1929142;74;21541;-74
2021/03/12 12:40:13;;;;;;;24.15;4.45;;;13.30;95.40;;;;;;1925758;73;21180;-80
2021/03/12 12:42:40;;;;;;;20.80;3.67;;;13.70;95.10;;;;;;1927869;74;21098;-77
2021/03/12 12:45:09;;;;;;;16.12;3.65;;;13.50;94.10;;;;;;1924402;73;21114;-77
2021/03/12 12:47:36;;;;;;;19.23;3.65;;;13.40;95.10;;;;;;1928111;73;21574;-77
2021/03/12 12:50:08;;;;;;;16.35;4.10;;;13.10;94.80;;;;;;1930223;73;21055;-77
2021/03/12 12:52:35;;;;;;;19.87;3.65;;;13.10;95.50;;;;;;1927914;73;21154;-77
2021/03/12 12:55:04;;;;;;;20.52;3.62;;;13.30;95.70;;;;;;1929167;73;21091;-74
2021/03/12 12:57:32;;;;;;;16.73;3.35;;;13.10;95.50;;;;;;1924203;74;21066;-75
2021/03/12 13:00:00;;;;;;;14.63;3.27;;;13.00;95.70;;;;;;1926526;73;21097;-75
2021/03/12 13:02:27;;;;;;;18.20;3.72;;;12.70;95.90;;;;;;1927034;73;21190;-75